sensor_id;sensor_type;location;lat;lon;timestamp;P1;durP1;ratioP1;P2;durP2;ratioP2
18649;SDS011;9454;53.516;10.478;2024-03-08T00:02:55;12.13;;;5.93;;
18649;SDS011;9454;53.516;10.478;2024-03-08T00:06:00;16.50;;;6.63;;
18649;SDS011;9454;53.516;10.478;2024-03-08T00:09:04;18.10;;;7.30;;
18649;SDS011;9454;53.516;10.478;2024-03-08T00:12:10;16.45;;;7.47;;
18649;SDS011;9454;53.516;10.478;2024-03-08T00:15:16;14.90;;;7.18;;
18649;SDS011;9454;53.516;10.478;2024-03-08T00:18:20;18.80;;;7.30;;
18649;SDS011;9454;53.516;10.478;2024-03-08T00:21:24;12.82;;;6.25;;
18649;SDS011;9454;53.516;10.478;2024-03-08T00:24:28;14.73;;;7.00;;
18649;SDS011;9454;53.516;10.478;2024-03-08T00:27:32;15.35;;;7.90;;
18649;SDS011;9454;53.516;10.478;2024-03-08T00:30:37;21.30;;;7.43;;
18649;SDS011;9454;53.516;10.478;2024-03-08T00:33:41;12.05;;;5.53;;
18649;SDS011;9454;53.516;10.478;2024-03-08T00:36:45;11.57;;;6.85;;
18649;SDS011;9454;53.516;10.478;2024-03-08T00:39:49;13.27;;;6.97;;
18649;SDS011;9454;53.516;10.478;2024-03-08T00:42:52;14.45;;;7.15;;
18649;SDS011;9454;53.516;10.478;2024-03-08T00:45:57;15.27;;;6.95;;
18649;SDS011;9454;53.516;10.478;2024-03-08T00:49:00;19.35;;;6.80;;
18649;SDS011;9454;53.516;10.478;2024-03-08T00:52:06;14.10;;;6.35;;
18649;SDS011;9454;53.516;10.478;2024-03-08T00:55:10;17.70;;;6.80;;
18649;SDS011;9454;53.516;10.478;2024-03-08T00:58:14;14.73;;;6.43;;
18649;SDS011;9454;53.516;10.478;2024-03-08T01:01:19;15.52;;;7.18;;
18649;SDS011;9454;53.516;10.478;2024-03-08T01:04:23;15.23;;;7.22;;
18649;SDS011;9454;53.516;10.478;2024-03-08T01:07:32;15.20;;;7.28;;
18649;SDS011;9454;53.516;10.478;2024-03-08T01:10:36;16.52;;;7.05;;
18649;SDS011;9454;53.516;10.478;2024-03-08T01:13:40;18.23;;;6.75;;
18649;SDS011;9454;53.516;10.478;2024-03-08T01:16:45;14.05;;;5.93;;
18649;SDS011;9454;53.516;10.478;2024-03-08T01:19:49;14.30;;;7.28;;
18649;SDS011;9454;53.516;10.478;2024-03-08T01:22:52;14.90;;;6.63;;
18649;SDS011;9454;53.516;10.478;2024-03-08T01:25:56;14.68;;;6.72;;
18649;SDS011;9454;53.516;10.478;2024-03-08T01:29:00;15.60;;;6.57;;
18649;SDS011;9454;53.516;10.478;2024-03-08T01:32:06;15.35;;;6.35;;
18649;SDS011;9454;53.516;10.478;2024-03-08T01:35:10;12.90;;;6.63;;
18649;SDS011;9454;53.516;10.478;2024-03-08T01:38:24;17.52;;;7.20;;
18649;SDS011;9454;53.516;10.478;2024-03-08T01:41:28;14.68;;;6.45;;
18649;SDS011;9454;53.516;10.478;2024-03-08T01:44:32;14.90;;;7.15;;
18649;SDS011;9454;53.516;10.478;2024-03-08T01:47:37;15.10;;;6.65;;
18649;SDS011;9454;53.516;10.478;2024-03-08T01:50:41;15.68;;;6.53;;
18649;SDS011;9454;53.516;10.478;2024-03-08T01:53:46;15.85;;;6.78;;
18649;SDS011;9454;53.516;10.478;2024-03-08T01:56:50;15.13;;;6.80;;
18649;SDS011;9454;53.516;10.478;2024-03-08T01:59:54;14.68;;;6.80;;
18649;SDS011;9454;53.516;10.478;2024-03-08T02:03:00;12.68;;;6.22;;
18649;SDS011;9454;53.516;10.478;2024-03-08T02:06:05;25.27;;;8.30;;
18649;SDS011;9454;53.516;10.478;2024-03-08T02:09:12;13.30;;;6.00;;
18649;SDS011;9454;53.516;10.478;2024-03-08T02:12:15;15.25;;;6.97;;
18649;SDS011;9454;53.516;10.478;2024-03-08T02:15:22;14.70;;;6.68;;
18649;SDS011;9454;53.516;10.478;2024-03-08T02:18:27;17.08;;;7.10;;
18649;SDS011;9454;53.516;10.478;2024-03-08T02:21:33;18.00;;;7.07;;
18649;SDS011;9454;53.516;10.478;2024-03-08T02:24:36;17.17;;;7.20;;
18649;SDS011;9454;53.516;10.478;2024-03-08T02:27:40;17.98;;;6.85;;
18649;SDS011;9454;53.516;10.478;2024-03-08T02:30:43;16.35;;;6.85;;
18649;SDS011;9454;53.516;10.478;2024-03-08T02:33:48;16.17;;;7.03;;
18649;SDS011;9454;53.516;10.478;2024-03-08T02:36:53;17.70;;;6.50;;
18649;SDS011;9454;53.516;10.478;2024-03-08T02:39:57;16.67;;;6.70;;
18649;SDS011;9454;53.516;10.478;2024-03-08T02:43:01;15.07;;;6.70;;
18649;SDS011;9454;53.516;10.478;2024-03-08T02:46:19;16.98;;;7.53;;
18649;SDS011;9454;53.516;10.478;2024-03-08T02:49:22;15.75;;;6.45;;
18649;SDS011;9454;53.516;10.478;2024-03-08T02:52:35;16.20;;;6.75;;
18649;SDS011;9454;53.516;10.478;2024-03-08T02:55:41;15.93;;;7.13;;
18649;SDS011;9454;53.516;10.478;2024-03-08T02:58:45;16.08;;;7.47;;
18649;SDS011;9454;53.516;10.478;2024-03-08T03:01:50;17.23;;;7.35;;
18649;SDS011;9454;53.516;10.478;2024-03-08T03:04:54;19.23;;;7.57;;
18649;SDS011;9454;53.516;10.478;2024-03-08T03:07:59;15.55;;;6.90;;
18649;SDS011;9454;53.516;10.478;2024-03-08T03:11:03;17.38;;;7.63;;
18649;SDS011;9454;53.516;10.478;2024-03-08T03:14:06;15.50;;;6.82;;
18649;SDS011;9454;53.516;10.478;2024-03-08T03:17:10;14.68;;;6.65;;
18649;SDS011;9454;53.516;10.478;2024-03-08T03:20:14;15.40;;;6.95;;
18649;SDS011;9454;53.516;10.478;2024-03-08T03:23:25;15.10;;;6.15;;
18649;SDS011;9454;53.516;10.478;2024-03-08T03:26:29;14.80;;;7.35;;
18649;SDS011;9454;53.516;10.478;2024-03-08T03:29:33;16.15;;;6.63;;
18649;SDS011;9454;53.516;10.478;2024-03-08T03:32:37;17.15;;;7.43;;
18649;SDS011;9454;53.516;10.478;2024-03-08T03:35:48;16.65;;;6.68;;
18649;SDS011;9454;53.516;10.478;2024-03-08T03:38:54;15.90;;;6.55;;
18649;SDS011;9454;53.516;10.478;2024-03-08T03:42:14;16.85;;;6.80;;
18649;SDS011;9454;53.516;10.478;2024-03-08T03:45:20;15.20;;;6.55;;
18649;SDS011;9454;53.516;10.478;2024-03-08T03:48:32;19.48;;;6.72;;
18649;SDS011;9454;53.516;10.478;2024-03-08T03:51:36;16.77;;;7.10;;
18649;SDS011;9454;53.516;10.478;2024-03-08T03:54:41;17.83;;;6.15;;
18649;SDS011;9454;53.516;10.478;2024-03-08T03:57:45;17.92;;;6.82;;
18649;SDS011;9454;53.516;10.478;2024-03-08T04:00:48;21.55;;;6.93;;
18649;SDS011;9454;53.516;10.478;2024-03-08T04:03:52;20.27;;;7.25;;
18649;SDS011;9454;53.516;10.478;2024-03-08T04:06:56;14.43;;;6.28;;
18649;SDS011;9454;53.516;10.478;2024-03-08T04:10:07;12.48;;;6.22;;
18649;SDS011;9454;53.516;10.478;2024-03-08T04:13:10;15.45;;;6.72;;
18649;SDS011;9454;53.516;10.478;2024-03-08T04:16:14;16.63;;;7.15;;
18649;SDS011;9454;53.516;10.478;2024-03-08T04:19:17;12.95;;;7.10;;
18649;SDS011;9454;53.516;10.478;2024-03-08T04:22:21;17.65;;;6.55;;
18649;SDS011;9454;53.516;10.478;2024-03-08T04:25:26;17.55;;;7.50;;
18649;SDS011;9454;53.516;10.478;2024-03-08T04:28:29;17.10;;;6.95;;
18649;SDS011;9454;53.516;10.478;2024-03-08T04:31:33;15.43;;;6.82;;
18649;SDS011;9454;53.516;10.478;2024-03-08T04:34:39;13.60;;;6.97;;
18649;SDS011;9454;53.516;10.478;2024-03-08T04:37:47;18.95;;;7.65;;
18649;SDS011;9454;53.516;10.478;2024-03-08T04:40:51;17.08;;;7.05;;
18649;SDS011;9454;53.516;10.478;2024-03-08T04:43:56;15.95;;;6.35;;
18649;SDS011;9454;53.516;10.478;2024-03-08T04:47:00;19.25;;;7.20;;
18649;SDS011;9454;53.516;10.478;2024-03-08T04:50:07;17.85;;;7.20;;
18649;SDS011;9454;53.516;10.478;2024-03-08T04:53:12;16.27;;;6.97;;
18649;SDS011;9454;53.516;10.478;2024-03-08T04:56:18;14.30;;;7.22;;
18649;SDS011;9454;53.516;10.478;2024-03-08T04:59:21;16.05;;;7.03;;
18649;SDS011;9454;53.516;10.478;2024-03-08T05:02:33;25.50;;;7.82;;
18649;SDS011;9454;53.516;10.478;2024-03-08T05:05:38;18.90;;;7.95;;
18649;SDS011;9454;53.516;10.478;2024-03-08T05:08:41;22.63;;;6.88;;
18649;SDS011;9454;53.516;10.478;2024-03-08T05:11:46;17.80;;;7.28;;
18649;SDS011;9454;53.516;10.478;2024-03-08T05:14:50;18.77;;;7.80;;
18649;SDS011;9454;53.516;10.478;2024-03-08T05:17:53;21.70;;;7.95;;
18649;SDS011;9454;53.516;10.478;2024-03-08T05:20:59;17.70;;;7.47;;
18649;SDS011;9454;53.516;10.478;2024-03-08T05:24:05;14.20;;;6.68;;
18649;SDS011;9454;53.516;10.478;2024-03-08T05:27:10;15.15;;;6.22;;
18649;SDS011;9454;53.516;10.478;2024-03-08T05:30:26;15.40;;;7.15;;
18649;SDS011;9454;53.516;10.478;2024-03-08T05:33:30;19.67;;;7.60;;
18649;SDS011;9454;53.516;10.478;2024-03-08T05:36:36;15.85;;;6.93;;
18649;SDS011;9454;53.516;10.478;2024-03-08T05:39:39;17.77;;;6.72;;
18649;SDS011;9454;53.516;10.478;2024-03-08T05:42:44;13.93;;;7.00;;
18649;SDS011;9454;53.516;10.478;2024-03-08T05:45:48;17.70;;;7.70;;
18649;SDS011;9454;53.516;10.478;2024-03-08T05:48:51;12.70;;;6.68;;
18649;SDS011;9454;53.516;10.478;2024-03-08T05:51:56;15.23;;;6.70;;
18649;SDS011;9454;53.516;10.478;2024-03-08T05:55:01;18.13;;;7.13;;
18649;SDS011;9454;53.516;10.478;2024-03-08T05:58:10;16.65;;;7.15;;
18649;SDS011;9454;53.516;10.478;2024-03-08T06:01:13;19.95;;;7.70;;
18649;SDS011;9454;53.516;10.478;2024-03-08T06:04:17;17.65;;;7.45;;
18649;SDS011;9454;53.516;10.478;2024-03-08T06:07:21;22.42;;;7.47;;
18649;SDS011;9454;53.516;10.478;2024-03-08T06:10:25;16.45;;;7.03;;
18649;SDS011;9454;53.516;10.478;2024-03-08T06:13:32;17.25;;;7.70;;
18649;SDS011;9454;53.516;10.478;2024-03-08T06:16:36;17.25;;;7.07;;
18649;SDS011;9454;53.516;10.478;2024-03-08T06:19:40;20.88;;;7.93;;
18649;SDS011;9454;53.516;10.478;2024-03-08T06:22:48;20.35;;;7.93;;
18649;SDS011;9454;53.516;10.478;2024-03-08T06:26:01;20.33;;;8.65;;
18649;SDS011;9454;53.516;10.478;2024-03-08T06:29:07;24.73;;;7.95;;
18649;SDS011;9454;53.516;10.478;2024-03-08T06:32:12;19.55;;;7.80;;
18649;SDS011;9454;53.516;10.478;2024-03-08T06:35:17;17.15;;;8.05;;
18649;SDS011;9454;53.516;10.478;2024-03-08T06:38:22;21.90;;;8.60;;
18649;SDS011;9454;53.516;10.478;2024-03-08T06:41:27;17.98;;;7.82;;
18649;SDS011;9454;53.516;10.478;2024-03-08T06:44:32;18.27;;;7.95;;
18649;SDS011;9454;53.516;10.478;2024-03-08T06:47:39;21.05;;;8.68;;
18649;SDS011;9454;53.516;10.478;2024-03-08T06:50:45;18.23;;;7.93;;
18649;SDS011;9454;53.516;10.478;2024-03-08T06:53:49;22.00;;;9.48;;
18649;SDS011;9454;53.516;10.478;2024-03-08T06:56:53;24.75;;;8.80;;
18649;SDS011;9454;53.516;10.478;2024-03-08T07:00:02;25.85;;;9.95;;
18649;SDS011;9454;53.516;10.478;2024-03-08T07:03:07;24.02;;;9.88;;
18649;SDS011;9454;53.516;10.478;2024-03-08T07:06:15;24.13;;;9.13;;
18649;SDS011;9454;53.516;10.478;2024-03-08T07:09:22;19.30;;;9.10;;
18649;SDS011;9454;53.516;10.478;2024-03-08T07:12:27;19.52;;;9.50;;
18649;SDS011;9454;53.516;10.478;2024-03-08T07:15:32;24.38;;;9.52;;
18649;SDS011;9454;53.516;10.478;2024-03-08T07:18:37;24.63;;;9.63;;
18649;SDS011;9454;53.516;10.478;2024-03-08T07:21:45;22.52;;;10.00;;
18649;SDS011;9454;53.516;10.478;2024-03-08T07:24:49;27.42;;;11.38;;
18649;SDS011;9454;53.516;10.478;2024-03-08T07:28:06;27.08;;;10.52;;
18649;SDS011;9454;53.516;10.478;2024-03-08T07:31:15;26.83;;;9.48;;
18649;SDS011;9454;53.516;10.478;2024-03-08T07:34:28;20.63;;;9.40;;
18649;SDS011;9454;53.516;10.478;2024-03-08T07:37:33;21.30;;;9.75;;
18649;SDS011;9454;53.516;10.478;2024-03-08T07:40:37;23.10;;;10.45;;
18649;SDS011;9454;53.516;10.478;2024-03-08T07:43:42;23.05;;;10.25;;
18649;SDS011;9454;53.516;10.478;2024-03-08T07:46:47;27.05;;;10.18;;
18649;SDS011;9454;53.516;10.478;2024-03-08T07:49:54;24.33;;;10.43;;
18649;SDS011;9454;53.516;10.478;2024-03-08T07:52:59;27.25;;;11.23;;
18649;SDS011;9454;53.516;10.478;2024-03-08T07:56:07;25.08;;;11.05;;
18649;SDS011;9454;53.516;10.478;2024-03-08T07:59:14;24.48;;;10.15;;
18649;SDS011;9454;53.516;10.478;2024-03-08T08:02:19;27.92;;;11.25;;
18649;SDS011;9454;53.516;10.478;2024-03-08T08:05:22;23.23;;;11.25;;
18649;SDS011;9454;53.516;10.478;2024-03-08T08:08:28;22.83;;;10.52;;
18649;SDS011;9454;53.516;10.478;2024-03-08T08:11:34;26.15;;;10.93;;
18649;SDS011;9454;53.516;10.478;2024-03-08T08:14:37;25.67;;;10.63;;
18649;SDS011;9454;53.516;10.478;2024-03-08T08:17:44;22.88;;;10.07;;
18649;SDS011;9454;53.516;10.478;2024-03-08T08:20:49;26.65;;;10.77;;
18649;SDS011;9454;53.516;10.478;2024-03-08T08:24:09;25.30;;;10.15;;
18649;SDS011;9454;53.516;10.478;2024-03-08T08:27:13;25.92;;;11.82;;
18649;SDS011;9454;53.516;10.478;2024-03-08T08:30:17;26.75;;;11.82;;
18649;SDS011;9454;53.516;10.478;2024-03-08T08:33:23;25.05;;;11.52;;
18649;SDS011;9454;53.516;10.478;2024-03-08T08:36:28;28.20;;;10.90;;
18649;SDS011;9454;53.516;10.478;2024-03-08T08:39:33;29.98;;;12.02;;
18649;SDS011;9454;53.516;10.478;2024-03-08T08:42:36;29.75;;;10.75;;
18649;SDS011;9454;53.516;10.478;2024-03-08T08:45:40;21.60;;;9.55;;
18649;SDS011;9454;53.516;10.478;2024-03-08T08:48:45;27.40;;;11.48;;
18649;SDS011;9454;53.516;10.478;2024-03-08T08:51:49;23.40;;;10.70;;
18649;SDS011;9454;53.516;10.478;2024-03-08T08:54:55;23.00;;;10.05;;
18649;SDS011;9454;53.516;10.478;2024-03-08T08:58:00;24.38;;;10.85;;
18649;SDS011;9454;53.516;10.478;2024-03-08T09:01:07;29.27;;;10.43;;
18649;SDS011;9454;53.516;10.478;2024-03-08T09:04:13;26.95;;;10.82;;
18649;SDS011;9454;53.516;10.478;2024-03-08T09:07:18;28.55;;;11.50;;
18649;SDS011;9454;53.516;10.478;2024-03-08T09:10:22;30.00;;;11.18;;
18649;SDS011;9454;53.516;10.478;2024-03-08T09:13:43;25.13;;;11.27;;
18649;SDS011;9454;53.516;10.478;2024-03-08T09:17:05;26.65;;;11.43;;
18649;SDS011;9454;53.516;10.478;2024-03-08T09:20:14;24.13;;;11.35;;
18649;SDS011;9454;53.516;10.478;2024-03-08T09:23:19;25.52;;;10.43;;
18649;SDS011;9454;53.516;10.478;2024-03-08T09:26:23;28.42;;;10.82;;
18649;SDS011;9454;53.516;10.478;2024-03-08T09:29:30;22.50;;;10.02;;
18649;SDS011;9454;53.516;10.478;2024-03-08T09:32:34;21.40;;;9.95;;
18649;SDS011;9454;53.516;10.478;2024-03-08T09:35:42;23.60;;;9.57;;
18649;SDS011;9454;53.516;10.478;2024-03-08T09:39:21;21.85;;;10.75;;
18649;SDS011;9454;53.516;10.478;2024-03-08T09:42:49;24.05;;;10.75;;
18649;SDS011;9454;53.516;10.478;2024-03-08T09:45:56;26.25;;;10.98;;
18649;SDS011;9454;53.516;10.478;2024-03-08T09:49:07;26.55;;;10.70;;
18649;SDS011;9454;53.516;10.478;2024-03-08T09:52:14;23.02;;;9.80;;
18649;SDS011;9454;53.516;10.478;2024-03-08T09:55:19;25.35;;;9.80;;
18649;SDS011;9454;53.516;10.478;2024-03-08T09:58:25;23.45;;;10.35;;
18649;SDS011;9454;53.516;10.478;2024-03-08T10:02:01;23.20;;;10.63;;
18649;SDS011;9454;53.516;10.478;2024-03-08T10:05:07;25.67;;;10.48;;
18649;SDS011;9454;53.516;10.478;2024-03-08T10:08:37;27.08;;;11.27;;
18649;SDS011;9454;53.516;10.478;2024-03-08T10:11:42;21.80;;;10.73;;
18649;SDS011;9454;53.516;10.478;2024-03-08T10:14:47;25.27;;;9.65;;
18649;SDS011;9454;53.516;10.478;2024-03-08T10:18:02;22.20;;;10.27;;
18649;SDS011;9454;53.516;10.478;2024-03-08T10:21:08;16.75;;;7.68;;
18649;SDS011;9454;53.516;10.478;2024-03-08T10:24:13;26.15;;;10.50;;
18649;SDS011;9454;53.516;10.478;2024-03-08T10:27:17;20.48;;;9.27;;
18649;SDS011;9454;53.516;10.478;2024-03-08T10:30:22;23.33;;;9.98;;
18649;SDS011;9454;53.516;10.478;2024-03-08T10:33:25;20.67;;;7.22;;
18649;SDS011;9454;53.516;10.478;2024-03-08T10:36:29;24.90;;;10.68;;
18649;SDS011;9454;53.516;10.478;2024-03-08T10:39:36;22.90;;;10.85;;
18649;SDS011;9454;53.516;10.478;2024-03-08T10:42:40;24.23;;;10.55;;
18649;SDS011;9454;53.516;10.478;2024-03-08T10:45:44;22.98;;;10.13;;
18649;SDS011;9454;53.516;10.478;2024-03-08T10:48:54;20.50;;;8.65;;
18649;SDS011;9454;53.516;10.478;2024-03-08T10:52:17;28.65;;;9.05;;
18649;SDS011;9454;53.516;10.478;2024-03-08T10:55:28;24.58;;;9.75;;
18649;SDS011;9454;53.516;10.478;2024-03-08T10:58:31;21.00;;;9.65;;
18649;SDS011;9454;53.516;10.478;2024-03-08T11:01:36;21.88;;;10.02;;
18649;SDS011;9454;53.516;10.478;2024-03-08T11:04:50;17.08;;;7.15;;
18649;SDS011;9454;53.516;10.478;2024-03-08T11:08:16;27.13;;;10.45;;
18649;SDS011;9454;53.516;10.478;2024-03-08T11:11:26;22.30;;;10.00;;
18649;SDS011;9454;53.516;10.478;2024-03-08T11:14:45;16.02;;;7.03;;
18649;SDS011;9454;53.516;10.478;2024-03-08T11:17:51;22.05;;;9.98;;
18649;SDS011;9454;53.516;10.478;2024-03-08T11:21:08;23.95;;;9.73;;
18649;SDS011;9454;53.516;10.478;2024-03-08T11:24:17;23.33;;;10.50;;
18649;SDS011;9454;53.516;10.478;2024-03-08T11:27:22;24.92;;;10.65;;
18649;SDS011;9454;53.516;10.478;2024-03-08T11:30:31;15.65;;;7.25;;
18649;SDS011;9454;53.516;10.478;2024-03-08T11:33:39;14.68;;;7.45;;
18649;SDS011;9454;53.516;10.478;2024-03-08T11:36:47;23.15;;;9.73;;
18649;SDS011;9454;53.516;10.478;2024-03-08T11:39:51;18.55;;;8.25;;
18649;SDS011;9454;53.516;10.478;2024-03-08T11:43:01;19.85;;;8.50;;
18649;SDS011;9454;53.516;10.478;2024-03-08T11:46:08;13.32;;;6.55;;
18649;SDS011;9454;53.516;10.478;2024-03-08T11:49:14;19.67;;;7.18;;
18649;SDS011;9454;53.516;10.478;2024-03-08T11:52:19;21.05;;;8.93;;
18649;SDS011;9454;53.516;10.478;2024-03-08T11:55:22;19.60;;;8.93;;
18649;SDS011;9454;53.516;10.478;2024-03-08T11:58:29;19.67;;;10.00;;
18649;SDS011;9454;53.516;10.478;2024-03-08T12:01:34;21.00;;;9.13;;
18649;SDS011;9454;53.516;10.478;2024-03-08T12:04:38;22.20;;;9.98;;
18649;SDS011;9454;53.516;10.478;2024-03-08T12:07:43;18.30;;;8.18;;
18649;SDS011;9454;53.516;10.478;2024-03-08T12:10:50;17.27;;;6.80;;
18649;SDS011;9454;53.516;10.478;2024-03-08T12:14:04;25.95;;;8.90;;
18649;SDS011;9454;53.516;10.478;2024-03-08T12:17:09;17.05;;;8.07;;
18649;SDS011;9454;53.516;10.478;2024-03-08T12:20:19;20.33;;;8.50;;
18649;SDS011;9454;53.516;10.478;2024-03-08T12:23:24;20.60;;;7.60;;
18649;SDS011;9454;53.516;10.478;2024-03-08T12:26:29;13.68;;;5.93;;
18649;SDS011;9454;53.516;10.478;2024-03-08T12:29:41;23.23;;;9.35;;
18649;SDS011;9454;53.516;10.478;2024-03-08T12:32:59;21.38;;;7.45;;
18649;SDS011;9454;53.516;10.478;2024-03-08T12:36:11;17.42;;;7.28;;
18649;SDS011;9454;53.516;10.478;2024-03-08T12:39:17;21.88;;;8.27;;
18649;SDS011;9454;53.516;10.478;2024-03-08T12:42:31;19.80;;;7.72;;
18649;SDS011;9454;53.516;10.478;2024-03-08T12:45:42;17.23;;;8.57;;
18649;SDS011;9454;53.516;10.478;2024-03-08T12:48:47;19.42;;;8.95;;
18649;SDS011;9454;53.516;10.478;2024-03-08T12:52:09;18.45;;;7.72;;
18649;SDS011;9454;53.516;10.478;2024-03-08T12:55:30;19.33;;;8.00;;
18649;SDS011;9454;53.516;10.478;2024-03-08T12:58:55;18.42;;;9.55;;
18649;SDS011;9454;53.516;10.478;2024-03-08T13:02:05;19.27;;;8.65;;
18649;SDS011;9454;53.516;10.478;2024-03-08T13:05:13;12.25;;;6.70;;
18649;SDS011;9454;53.516;10.478;2024-03-08T13:08:24;17.15;;;7.13;;
18649;SDS011;9454;53.516;10.478;2024-03-08T13:11:45;16.65;;;6.63;;
18649;SDS011;9454;53.516;10.478;2024-03-08T13:14:52;20.75;;;7.75;;
18649;SDS011;9454;53.516;10.478;2024-03-08T13:18:27;18.92;;;6.97;;
18649;SDS011;9454;53.516;10.478;2024-03-08T13:21:48;16.42;;;7.03;;
18649;SDS011;9454;53.516;10.478;2024-03-08T13:24:57;17.10;;;7.22;;
18649;SDS011;9454;53.516;10.478;2024-03-08T13:28:05;15.82;;;6.53;;
18649;SDS011;9454;53.516;10.478;2024-03-08T13:31:08;18.27;;;7.78;;
18649;SDS011;9454;53.516;10.478;2024-03-08T13:34:13;19.10;;;8.07;;
18649;SDS011;9454;53.516;10.478;2024-03-08T13:37:19;11.48;;;5.45;;
18649;SDS011;9454;53.516;10.478;2024-03-08T13:40:23;19.25;;;7.68;;
18649;SDS011;9454;53.516;10.478;2024-03-08T13:43:28;16.35;;;8.30;;
18649;SDS011;9454;53.516;10.478;2024-03-08T13:46:34;14.07;;;7.50;;
18649;SDS011;9454;53.516;10.478;2024-03-08T13:49:40;17.65;;;8.05;;
18649;SDS011;9454;53.516;10.478;2024-03-08T13:52:45;17.05;;;6.90;;
18649;SDS011;9454;53.516;10.478;2024-03-08T13:55:54;17.85;;;7.38;;
18649;SDS011;9454;53.516;10.478;2024-03-08T13:58:58;17.63;;;6.13;;
18649;SDS011;9454;53.516;10.478;2024-03-08T14:02:02;15.23;;;7.03;;
18649;SDS011;9454;53.516;10.478;2024-03-08T14:05:12;16.50;;;7.05;;
18649;SDS011;9454;53.516;10.478;2024-03-08T14:08:36;15.60;;;6.55;;
18649;SDS011;9454;53.516;10.478;2024-03-08T14:11:40;12.85;;;5.53;;
18649;SDS011;9454;53.516;10.478;2024-03-08T14:14:56;15.52;;;6.22;;
18649;SDS011;9454;53.516;10.478;2024-03-08T14:18:00;15.48;;;6.45;;
18649;SDS011;9454;53.516;10.478;2024-03-08T14:21:06;21.88;;;7.63;;
18649;SDS011;9454;53.516;10.478;2024-03-08T14:24:16;14.93;;;6.10;;
18649;SDS011;9454;53.516;10.478;2024-03-08T14:27:26;20.20;;;6.60;;
18649;SDS011;9454;53.516;10.478;2024-03-08T14:30:30;14.15;;;6.97;;
18649;SDS011;9454;53.516;10.478;2024-03-08T14:33:40;16.30;;;6.53;;
18649;SDS011;9454;53.516;10.478;2024-03-08T14:36:45;14.50;;;6.97;;
18649;SDS011;9454;53.516;10.478;2024-03-08T14:39:50;14.70;;;5.53;;
18649;SDS011;9454;53.516;10.478;2024-03-08T14:42:53;14.48;;;6.88;;
18649;SDS011;9454;53.516;10.478;2024-03-08T14:45:57;11.00;;;5.35;;
18649;SDS011;9454;53.516;10.478;2024-03-08T14:49:01;10.77;;;4.70;;
18649;SDS011;9454;53.516;10.478;2024-03-08T14:52:06;10.77;;;5.13;;
18649;SDS011;9454;53.516;10.478;2024-03-08T14:55:28;15.80;;;7.07;;
18649;SDS011;9454;53.516;10.478;2024-03-08T14:58:39;16.20;;;7.18;;
18649;SDS011;9454;53.516;10.478;2024-03-08T15:01:43;14.13;;;6.20;;
18649;SDS011;9454;53.516;10.478;2024-03-08T15:04:47;17.25;;;6.97;;
18649;SDS011;9454;53.516;10.478;2024-03-08T15:08:00;21.63;;;7.70;;
18649;SDS011;9454;53.516;10.478;2024-03-08T15:11:04;16.92;;;7.65;;
18649;SDS011;9454;53.516;10.478;2024-03-08T15:14:08;15.68;;;7.00;;
18649;SDS011;9454;53.516;10.478;2024-03-08T15:17:12;18.50;;;7.97;;
18649;SDS011;9454;53.516;10.478;2024-03-08T15:20:22;15.57;;;6.35;;
18649;SDS011;9454;53.516;10.478;2024-03-08T15:23:39;16.27;;;7.18;;
18649;SDS011;9454;53.516;10.478;2024-03-08T15:26:47;18.92;;;7.20;;
18649;SDS011;9454;53.516;10.478;2024-03-08T15:29:52;13.07;;;6.38;;
18649;SDS011;9454;53.516;10.478;2024-03-08T15:32:58;15.60;;;6.90;;
18649;SDS011;9454;53.516;10.478;2024-03-08T15:36:04;16.73;;;7.07;;
18649;SDS011;9454;53.516;10.478;2024-03-08T15:39:12;17.67;;;7.65;;
18649;SDS011;9454;53.516;10.478;2024-03-08T15:42:16;15.75;;;5.93;;
18649;SDS011;9454;53.516;10.478;2024-03-08T15:45:21;17.50;;;6.80;;
18649;SDS011;9454;53.516;10.478;2024-03-08T15:48:26;15.02;;;6.80;;
18649;SDS011;9454;53.516;10.478;2024-03-08T15:51:42;18.17;;;6.18;;
18649;SDS011;9454;53.516;10.478;2024-03-08T15:54:47;15.25;;;7.57;;
18649;SDS011;9454;53.516;10.478;2024-03-08T15:57:51;19.05;;;7.53;;
18649;SDS011;9454;53.516;10.478;2024-03-08T16:00:56;16.90;;;8.10;;
18649;SDS011;9454;53.516;10.478;2024-03-08T16:04:00;17.33;;;7.60;;
18649;SDS011;9454;53.516;10.478;2024-03-08T16:07:06;16.85;;;7.50;;
18649;SDS011;9454;53.516;10.478;2024-03-08T16:10:10;14.40;;;6.70;;
18649;SDS011;9454;53.516;10.478;2024-03-08T16:13:14;23.38;;;7.65;;
18649;SDS011;9454;53.516;10.478;2024-03-08T16:16:18;15.95;;;7.47;;
18649;SDS011;9454;53.516;10.478;2024-03-08T16:19:23;13.32;;;6.75;;
18649;SDS011;9454;53.516;10.478;2024-03-08T16:22:27;17.35;;;6.82;;
18649;SDS011;9454;53.516;10.478;2024-03-08T16:25:34;22.52;;;7.88;;
18649;SDS011;9454;53.516;10.478;2024-03-08T16:28:40;19.50;;;8.02;;
18649;SDS011;9454;53.516;10.478;2024-03-08T16:31:45;19.58;;;8.68;;
18649;SDS011;9454;53.516;10.478;2024-03-08T16:34:50;16.77;;;6.88;;
18649;SDS011;9454;53.516;10.478;2024-03-08T16:37:54;23.60;;;8.27;;
18649;SDS011;9454;53.516;10.478;2024-03-08T16:40:59;17.25;;;7.50;;
18649;SDS011;9454;53.516;10.478;2024-03-08T16:44:05;19.42;;;8.95;;
18649;SDS011;9454;53.516;10.478;2024-03-08T16:47:10;22.67;;;7.20;;
18649;SDS011;9454;53.516;10.478;2024-03-08T16:50:15;16.98;;;7.47;;
18649;SDS011;9454;53.516;10.478;2024-03-08T16:53:19;16.83;;;7.88;;
18649;SDS011;9454;53.516;10.478;2024-03-08T16:56:37;18.13;;;7.95;;
18649;SDS011;9454;53.516;10.478;2024-03-08T16:59:40;18.77;;;7.95;;
18649;SDS011;9454;53.516;10.478;2024-03-08T17:02:44;19.52;;;8.80;;
18649;SDS011;9454;53.516;10.478;2024-03-08T17:05:50;18.77;;;7.43;;
18649;SDS011;9454;53.516;10.478;2024-03-08T17:08:56;14.93;;;7.85;;
18649;SDS011;9454;53.516;10.478;2024-03-08T17:12:02;19.02;;;8.50;;
18649;SDS011;9454;53.516;10.478;2024-03-08T17:15:07;20.83;;;8.20;;
18649;SDS011;9454;53.516;10.478;2024-03-08T17:18:12;17.92;;;7.22;;
18649;SDS011;9454;53.516;10.478;2024-03-08T17:21:16;18.40;;;7.97;;
18649;SDS011;9454;53.516;10.478;2024-03-08T17:24:20;20.27;;;7.95;;
18649;SDS011;9454;53.516;10.478;2024-03-08T17:27:29;19.60;;;7.50;;
18649;SDS011;9454;53.516;10.478;2024-03-08T17:30:36;18.42;;;8.52;;
18649;SDS011;9454;53.516;10.478;2024-03-08T17:33:42;18.90;;;8.30;;
18649;SDS011;9454;53.516;10.478;2024-03-08T17:36:46;18.00;;;8.25;;
18649;SDS011;9454;53.516;10.478;2024-03-08T17:39:51;18.52;;;7.82;;
18649;SDS011;9454;53.516;10.478;2024-03-08T17:42:58;18.15;;;7.72;;
18649;SDS011;9454;53.516;10.478;2024-03-08T17:46:05;18.42;;;8.25;;
18649;SDS011;9454;53.516;10.478;2024-03-08T17:49:14;22.05;;;8.73;;
18649;SDS011;9454;53.516;10.478;2024-03-08T17:52:21;17.23;;;7.75;;
18649;SDS011;9454;53.516;10.478;2024-03-08T17:55:24;18.33;;;8.55;;
18649;SDS011;9454;53.516;10.478;2024-03-08T17:58:34;13.80;;;7.10;;
18649;SDS011;9454;53.516;10.478;2024-03-08T18:01:41;19.33;;;7.60;;
18649;SDS011;9454;53.516;10.478;2024-03-08T18:04:46;15.85;;;6.57;;
18649;SDS011;9454;53.516;10.478;2024-03-08T18:07:50;16.10;;;7.53;;
18649;SDS011;9454;53.516;10.478;2024-03-08T18:10:54;16.90;;;7.72;;
18649;SDS011;9454;53.516;10.478;2024-03-08T18:14:00;18.10;;;7.50;;
18649;SDS011;9454;53.516;10.478;2024-03-08T18:17:05;18.60;;;7.57;;
18649;SDS011;9454;53.516;10.478;2024-03-08T18:20:13;20.05;;;8.65;;
18649;SDS011;9454;53.516;10.478;2024-03-08T18:23:17;17.20;;;7.95;;
18649;SDS011;9454;53.516;10.478;2024-03-08T18:26:24;17.92;;;7.63;;
18649;SDS011;9454;53.516;10.478;2024-03-08T18:29:30;21.88;;;8.45;;